createdAt,value
2018-10-09T00:01:21.665Z,1.10
2018-10-09T00:03:52.190Z,0.70
2018-10-09T00:06:23.973Z,0.90
2018-10-09T00:08:55.915Z,0.73
2018-10-09T00:11:27.434Z,0.90
2018-10-09T00:13:57.640Z,0.73
2018-10-09T00:16:30.090Z,0.80
2018-10-09T00:19:01.050Z,0.70
2018-10-09T00:21:31.992Z,0.80
2018-10-09T00:24:01.590Z,0.90
2018-10-09T00:26:32.172Z,0.80
2018-10-09T00:29:02.706Z,0.90
2018-10-09T00:31:33.311Z,0.87
2018-10-09T00:34:04.626Z,0.87
2018-10-09T00:36:34.454Z,0.73
2018-10-09T00:39:05.535Z,0.80
2018-10-09T00:41:36.285Z,0.80
2018-10-09T00:44:07.020Z,0.70
2018-10-09T00:46:38.116Z,0.80
2018-10-09T00:49:08.871Z,0.80
2018-10-09T00:51:40.237Z,0.80
2018-10-09T00:54:11.604Z,0.97
2018-10-09T00:56:44.537Z,1.00
2018-10-09T00:59:16.117Z,0.80
2018-10-09T01:01:47.082Z,0.80
2018-10-09T01:04:18.599Z,0.97
2018-10-09T01:06:48.299Z,0.90
2018-10-09T01:09:20.067Z,0.80
2018-10-09T01:11:49.898Z,0.87
2018-10-09T01:14:20.014Z,1.10
2018-10-09T01:16:51.153Z,0.93
2018-10-09T01:19:21.676Z,1.00
2018-10-09T01:21:53.540Z,1.07
2018-10-09T01:24:24.079Z,1.40
2018-10-09T01:26:54.327Z,0.90
2018-10-09T01:29:26.123Z,1.00
2018-10-09T01:31:56.889Z,1.00
2018-10-09T01:34:27.228Z,1.00
2018-10-09T01:36:57.305Z,1.30
2018-10-09T01:39:28.725Z,1.20
2018-10-09T01:41:59.181Z,1.10
2018-10-09T01:44:31.591Z,1.20
2018-10-09T01:47:02.307Z,1.20
2018-10-09T01:49:32.853Z,1.20
2018-10-09T01:52:04.441Z,1.13
2018-10-09T01:54:35.892Z,1.20
2018-10-09T01:57:06.430Z,1.10
2018-10-09T01:59:38.134Z,1.20
2018-10-09T02:02:08.161Z,1.27
2018-10-09T02:04:37.871Z,1.10
2018-10-09T02:07:07.743Z,1.27
2018-10-09T02:09:38.885Z,1.13
2018-10-09T02:12:08.126Z,1.30
2018-10-09T02:14:37.593Z,1.10
2018-10-09T02:17:08.924Z,1.30
2018-10-09T02:19:38.302Z,1.20
2018-10-09T02:22:08.039Z,1.50
2018-10-09T02:24:37.957Z,1.10
2018-10-09T02:27:09.386Z,1.33
2018-10-09T02:29:39.662Z,1.20
2018-10-09T02:32:08.512Z,1.30
2018-10-09T02:34:39.066Z,1.20
2018-10-09T02:37:10.376Z,1.30
2018-10-09T02:39:40.967Z,1.10
2018-10-09T02:42:12.578Z,1.37
2018-10-09T02:44:43.218Z,1.20
2018-10-09T02:47:13.868Z,1.30
2018-10-09T02:49:45.232Z,1.20
2018-10-09T02:52:16.182Z,1.20
2018-10-09T02:54:47.708Z,1.40
2018-10-09T02:57:18.109Z,1.27
2018-10-09T02:59:49.152Z,1.30
2018-10-09T03:02:20.227Z,1.30
2018-10-09T03:04:51.857Z,1.40
2018-10-09T03:07:24.018Z,1.40
2018-10-09T03:09:54.273Z,1.30
2018-10-09T03:12:25.871Z,1.40
2018-10-09T03:14:57.507Z,1.30
2018-10-09T03:17:28.635Z,1.40
2018-10-09T03:20:00.374Z,1.40
2018-10-09T03:22:30.734Z,1.40
2018-10-09T03:25:02.336Z,1.23
2018-10-09T03:27:31.959Z,1.30
2018-10-09T03:30:00.889Z,1.30
2018-10-09T03:32:30.819Z,1.30
2018-10-09T03:35:06.455Z,1.20
2018-10-09T03:37:36.004Z,1.57
2018-10-09T03:40:08.248Z,1.20
2018-10-09T03:42:39.093Z,1.20
2018-10-09T03:45:08.715Z,1.10
2018-10-09T03:47:39.317Z,1.40
2018-10-09T03:50:11.042Z,1.13
2018-10-09T03:52:41.708Z,1.00
2018-10-09T03:55:11.715Z,1.20
2018-10-09T03:57:41.512Z,1.20
2018-10-09T04:00:11.405Z,1.17
2018-10-09T04:02:43.099Z,1.00
2018-10-09T04:05:13.693Z,1.10
2018-10-09T04:07:45.357Z,1.50
2018-10-09T04:10:16.042Z,1.13
2018-10-09T04:12:47.593Z,1.10
2018-10-09T04:15:18.989Z,1.23
2018-10-09T04:17:50.669Z,1.30
2018-10-09T04:20:20.485Z,1.23
2018-10-09T04:22:50.213Z,1.30
2018-10-09T04:25:19.760Z,1.27
2018-10-09T04:27:48.780Z,1.10
2018-10-09T04:30:18.839Z,1.07
2018-10-09T04:32:51.133Z,1.30
2018-10-09T04:35:21.384Z,1.00
2018-10-09T04:37:52.901Z,1.20
2018-10-09T04:40:24.941Z,1.20
2018-10-09T04:42:55.418Z,1.53
2018-10-09T04:45:29.721Z,1.40
2018-10-09T04:48:02.654Z,1.40
2018-10-09T04:50:33.316Z,1.20
2018-10-09T04:53:03.560Z,1.30
2018-10-09T04:55:32.603Z,1.30
2018-10-09T04:58:03.572Z,1.30
2018-10-09T05:00:33.056Z,1.30
2018-10-09T05:03:03.963Z,1.37
2018-10-09T05:05:35.929Z,1.37
2018-10-09T05:08:08.238Z,1.50
2018-10-09T05:10:39.564Z,1.20
2018-10-09T05:13:10.889Z,1.27
2018-10-09T05:15:39.738Z,1.40
2018-10-09T05:18:10.189Z,1.20
2018-10-09T05:20:40.888Z,1.30
2018-10-09T05:23:11.035Z,1.40
2018-10-09T05:25:41.712Z,1.60
2018-10-09T05:28:11.635Z,1.30
2018-10-09T05:30:42.275Z,1.50
2018-10-09T05:33:11.087Z,1.40
2018-10-09T05:35:42.724Z,1.40
2018-10-09T05:38:11.829Z,1.20
2018-10-09T05:40:42.645Z,1.43
2018-10-09T05:43:12.970Z,1.70
2018-10-09T05:45:43.372Z,1.50
2018-10-09T05:48:13.959Z,1.20
2018-10-09T05:50:46.170Z,1.30
2018-10-09T05:53:16.723Z,1.30
2018-10-09T05:55:48.582Z,1.40
2018-10-09T05:58:20.315Z,1.30
2018-10-09T06:00:51.154Z,1.30
2018-10-09T06:03:20.516Z,1.30
2018-10-09T06:05:51.115Z,1.20
2018-10-09T06:08:20.874Z,1.07
2018-10-09T06:10:52.728Z,1.10
2018-10-09T06:13:24.033Z,1.77
2018-10-09T06:15:53.695Z,1.40
2018-10-09T06:18:24.877Z,1.23
2018-10-09T06:20:56.543Z,1.20
2018-10-09T06:23:26.873Z,1.20
2018-10-09T06:25:56.631Z,1.40
2018-10-09T06:28:27.282Z,1.20
2018-10-09T06:30:57.695Z,1.27
2018-10-09T06:33:29.190Z,1.10
2018-10-09T06:36:00.149Z,1.20
2018-10-09T06:38:30.937Z,1.20
2018-10-09T06:41:01.330Z,1.50
2018-10-09T06:43:30.822Z,1.70
2018-10-09T06:46:00.577Z,1.17
2018-10-09T06:48:31.570Z,1.20
2018-10-09T06:51:02.413Z,1.30
2018-10-09T06:53:34.366Z,1.10
2018-10-09T06:56:05.738Z,1.33
2018-10-09T06:58:36.882Z,1.30
2018-10-09T07:01:07.008Z,1.10
2018-10-09T07:03:37.469Z,1.10
2018-10-09T07:06:07.948Z,1.20
2018-10-09T07:08:39.706Z,1.20
2018-10-09T07:11:11.029Z,1.30
2018-10-09T07:13:42.589Z,1.00
2018-10-09T07:16:12.618Z,1.10
2018-10-09T07:18:43.081Z,1.00
2018-10-09T07:21:13.560Z,1.40
2018-10-09T07:23:43.810Z,1.20
2018-10-09T07:26:13.813Z,1.50
2018-10-09T07:28:42.660Z,1.00
2018-10-09T07:31:11.863Z,1.20
2018-10-09T07:33:42.544Z,1.10
2018-10-09T07:36:15.005Z,1.20
2018-10-09T07:38:45.995Z,0.90
2018-10-09T07:41:16.364Z,1.00
2018-10-09T07:43:48.900Z,1.10
2018-10-09T07:46:19.581Z,1.10
2018-10-09T07:48:49.193Z,1.17
2018-10-09T07:51:20.005Z,1.07
2018-10-09T07:53:50.801Z,1.13
2018-10-09T07:56:21.668Z,1.10
2018-10-09T07:58:51.522Z,1.30
2018-10-09T08:01:21.523Z,0.90
2018-10-09T08:03:53.266Z,0.90
2018-10-09T08:06:22.438Z,1.20
2018-10-09T08:08:54.150Z,1.00
2018-10-09T08:11:26.300Z,1.10
2018-10-09T08:13:57.117Z,1.20
2018-10-09T08:16:28.171Z,1.50
2018-10-09T08:18:59.230Z,1.23
2018-10-09T08:21:28.848Z,1.07
2018-10-09T08:24:01.149Z,1.30
2018-10-09T08:26:30.898Z,1.30
2018-10-09T08:29:00.096Z,1.20
2018-10-09T08:31:30.452Z,1.10
2018-10-09T08:34:01.335Z,1.30
2018-10-09T08:36:30.374Z,1.03
2018-10-09T08:39:01.521Z,1.27
2018-10-09T08:41:33.152Z,1.10
2018-10-09T08:44:04.223Z,1.20
2018-10-09T08:46:34.851Z,1.27
2018-10-09T08:49:04.358Z,1.30
2018-10-09T08:51:34.739Z,1.20
2018-10-09T08:54:06.467Z,1.30
2018-10-09T08:56:38.237Z,1.60
2018-10-09T08:59:09.974Z,1.20
2018-10-09T09:01:40.897Z,1.27
2018-10-09T09:04:10.913Z,1.23
2018-10-09T09:06:41.501Z,1.40
2018-10-09T09:09:11.793Z,1.40
2018-10-09T09:11:41.782Z,1.43
2018-10-09T09:14:11.581Z,1.60
2018-10-09T09:16:41.865Z,1.73
2018-10-09T09:19:12.582Z,1.40
2018-10-09T09:21:43.403Z,1.67
2018-10-09T09:24:15.234Z,1.40
2018-10-09T09:26:45.790Z,1.90
2018-10-09T09:29:17.322Z,1.90
2018-10-09T09:31:47.846Z,1.67
2018-10-09T09:34:17.990Z,1.80
2018-10-09T09:36:47.909Z,1.70
2018-10-09T09:39:17.021Z,1.93
2018-10-09T09:41:48.447Z,1.80
2018-10-09T09:44:17.505Z,1.90
2018-10-09T09:46:48.552Z,2.17
2018-10-09T09:49:20.069Z,2.40
2018-10-09T09:51:50.681Z,1.90
2018-10-09T09:54:21.508Z,1.90
2018-10-09T09:56:51.108Z,1.70
2018-10-09T09:59:21.830Z,1.83
2018-10-09T10:01:52.444Z,2.20
2018-10-09T10:04:22.946Z,1.67
2018-10-09T10:06:55.738Z,1.70
2018-10-09T10:09:26.989Z,1.80
2018-10-09T10:11:59.521Z,1.83
2018-10-09T10:14:29.939Z,2.10
2018-10-09T10:16:59.846Z,1.80
2018-10-09T10:19:29.999Z,2.00
2018-10-09T10:22:00.225Z,1.60
2018-10-09T10:24:31.033Z,2.17
2018-10-09T10:27:00.951Z,2.03
2018-10-09T10:29:31.970Z,2.00
2018-10-09T10:32:02.545Z,2.00
2018-10-09T10:34:32.957Z,1.90
2018-10-09T10:37:04.066Z,1.90
2018-10-09T10:39:33.953Z,1.80
2018-10-09T10:42:04.533Z,2.33
2018-10-09T10:44:35.109Z,2.20
2018-10-09T10:47:07.330Z,1.97
2018-10-09T10:49:37.086Z,2.00
2018-10-09T10:52:06.006Z,1.70
2018-10-09T10:54:36.717Z,1.70
2018-10-09T10:57:06.417Z,1.77
2018-10-09T10:59:35.959Z,1.83
2018-10-09T11:02:06.405Z,1.70
2018-10-09T11:04:35.161Z,1.67
2018-10-09T11:07:05.245Z,2.20
2018-10-09T11:09:36.645Z,1.67
2018-10-09T11:12:07.349Z,1.53
2018-10-09T11:14:37.883Z,2.00
2018-10-09T11:17:09.726Z,2.03
2018-10-09T11:19:39.853Z,2.10
2018-10-09T11:22:10.537Z,1.80
2018-10-09T11:24:42.173Z,1.80
2018-10-09T11:27:13.056Z,1.70
2018-10-09T11:29:43.809Z,1.70
2018-10-09T11:32:14.333Z,2.00
2018-10-09T11:34:44.653Z,1.60
2018-10-09T11:37:14.193Z,1.70
2018-10-09T11:39:45.777Z,1.90
2018-10-09T11:42:17.170Z,1.60
2018-10-09T11:44:46.946Z,1.67
2018-10-09T11:47:17.929Z,1.67
2018-10-09T11:49:48.442Z,1.70
2018-10-09T11:52:19.208Z,1.90
2018-10-09T11:54:49.428Z,1.97
2018-10-09T11:57:20.833Z,1.53
2018-10-09T11:59:50.928Z,1.80
2018-10-09T12:02:22.242Z,1.70
2018-10-09T12:04:53.057Z,1.80
2018-10-09T12:07:23.552Z,1.67
2018-10-09T12:09:54.501Z,1.93
2018-10-09T12:12:24.549Z,1.50
2018-10-09T12:15:01.256Z,1.83
2018-10-09T12:17:31.861Z,1.90
2018-10-09T12:20:01.447Z,2.53
2018-10-09T12:22:30.289Z,1.90
2018-10-09T12:25:02.079Z,2.03
2018-10-09T12:27:32.679Z,1.97
2018-10-09T12:30:01.693Z,1.70
2018-10-09T12:32:32.517Z,1.67
2018-10-09T12:35:01.335Z,2.00
2018-10-09T12:37:33.146Z,1.67
2018-10-09T12:40:03.028Z,1.67
2018-10-09T12:42:33.433Z,1.57
2018-10-09T12:45:04.945Z,1.83
2018-10-09T12:47:37.060Z,1.80
2018-10-09T12:50:07.986Z,2.17
2018-10-09T12:52:38.220Z,1.90
2018-10-09T12:55:09.262Z,1.90
2018-10-09T12:57:39.924Z,1.80
2018-10-09T13:00:10.110Z,1.73
2018-10-09T13:02:41.195Z,1.73
2018-10-09T13:05:11.426Z,2.67
2018-10-09T13:07:42.509Z,1.90
2018-10-09T13:10:12.710Z,1.83
2018-10-09T13:12:42.986Z,2.33
2018-10-09T13:15:13.048Z,1.73
2018-10-09T13:17:42.836Z,1.90
2018-10-09T13:20:12.073Z,2.10
2018-10-09T13:22:41.007Z,1.80
2018-10-09T13:25:11.373Z,1.90
2018-10-09T13:27:41.928Z,2.30
2018-10-09T13:30:11.637Z,2.10
2018-10-09T13:32:41.887Z,1.80
2018-10-09T13:35:11.073Z,2.00
2018-10-09T13:37:41.862Z,2.00
2018-10-09T13:40:12.042Z,2.00
2018-10-09T13:42:42.750Z,2.50
2018-10-09T13:45:14.193Z,2.00
2018-10-09T13:47:45.450Z,1.90
2018-10-09T13:50:16.206Z,2.10
2018-10-09T13:52:46.769Z,1.97
2018-10-09T13:55:18.008Z,2.20
2018-10-09T13:57:50.430Z,2.13
2018-10-09T14:00:21.725Z,2.20
2018-10-09T14:02:52.549Z,2.20
2018-10-09T14:05:23.244Z,1.90
2018-10-09T14:07:53.911Z,2.40
2018-10-09T14:10:24.027Z,2.30
2018-10-09T14:12:53.040Z,2.10
2018-10-09T14:15:23.336Z,2.20
2018-10-09T14:17:52.939Z,2.50
2018-10-09T14:20:25.314Z,2.17
2018-10-09T14:22:54.205Z,2.20
2018-10-09T14:25:26.582Z,2.50
2018-10-09T14:27:57.288Z,2.20
2018-10-09T14:30:28.811Z,2.37
2018-10-09T14:32:59.695Z,2.30
2018-10-09T14:35:29.737Z,2.40
2018-10-09T14:38:02.235Z,2.20
2018-10-09T14:40:31.977Z,2.30
2018-10-09T14:43:04.088Z,2.23
2018-10-09T14:45:34.990Z,2.30
2018-10-09T14:48:07.151Z,2.30
2018-10-09T14:50:36.878Z,2.17
2018-10-09T14:53:08.773Z,2.30
2018-10-09T14:55:39.803Z,2.80
2018-10-09T14:58:12.046Z,2.00
2018-10-09T15:00:42.354Z,2.13
2018-10-09T15:03:11.920Z,2.40
2018-10-09T15:05:44.609Z,2.20
2018-10-09T15:08:14.347Z,2.20
2018-10-09T15:10:44.578Z,2.10
2018-10-09T15:13:14.086Z,2.00
2018-10-09T15:15:45.604Z,1.90
2018-10-09T15:18:16.004Z,2.07
2018-10-09T15:20:47.438Z,2.20
2018-10-09T15:23:17.211Z,2.20
2018-10-09T15:25:47.912Z,2.03
2018-10-09T15:28:17.822Z,2.10
2018-10-09T15:30:47.908Z,2.30
2018-10-09T15:33:18.923Z,2.50
2018-10-09T15:35:49.262Z,2.20
2018-10-09T15:38:20.803Z,2.20
2018-10-09T15:40:51.825Z,2.03
2018-10-09T15:43:21.512Z,2.40
2018-10-09T15:45:50.644Z,2.30
2018-10-09T15:48:20.430Z,2.40
2018-10-09T15:50:50.723Z,2.20
2018-10-09T15:53:21.746Z,2.37
2018-10-09T15:55:52.275Z,2.23
2018-10-09T15:58:21.037Z,1.93
2018-10-09T16:00:51.173Z,2.30
2018-10-09T16:03:20.944Z,2.27
2018-10-09T16:05:51.325Z,2.20
2018-10-09T16:08:20.585Z,2.20
2018-10-09T16:10:50.788Z,2.27
2018-10-09T16:13:21.437Z,2.47
2018-10-09T16:15:50.808Z,2.20
2018-10-09T16:18:21.102Z,2.40
2018-10-09T16:20:50.711Z,2.50
2018-10-09T16:23:21.746Z,2.40
2018-10-09T16:25:52.494Z,2.27
2018-10-09T16:28:22.906Z,2.43
2018-10-09T16:30:51.650Z,2.20
2018-10-09T16:33:20.802Z,2.40
2018-10-09T16:35:50.819Z,2.17
2018-10-09T16:38:20.655Z,2.23
2018-10-09T16:40:51.443Z,2.00
2018-10-09T16:43:22.132Z,2.20
2018-10-09T16:45:52.632Z,2.30
2018-10-09T16:48:22.451Z,2.03
2018-10-09T16:50:52.648Z,2.37
2018-10-09T16:53:22.830Z,2.13
2018-10-09T16:55:52.645Z,1.97
2018-10-09T16:58:21.769Z,1.97
2018-10-09T17:00:54.096Z,2.40
2018-10-09T17:03:25.262Z,2.10
2018-10-09T17:05:55.146Z,2.30
2018-10-09T17:08:25.118Z,2.00
2018-10-09T17:10:57.705Z,1.80
2018-10-09T17:13:29.502Z,1.93
2018-10-09T17:16:00.115Z,2.17
2018-10-09T17:18:29.558Z,2.00
2018-10-09T17:20:59.726Z,1.70
2018-10-09T17:23:28.898Z,1.70
2018-10-09T17:26:00.271Z,2.07
2018-10-09T17:28:31.044Z,1.90
2018-10-09T17:31:00.691Z,1.97
2018-10-09T17:33:31.778Z,2.30
2018-10-09T17:36:02.552Z,2.00
2018-10-09T17:38:33.912Z,1.93
2018-10-09T17:41:05.491Z,1.90
2018-10-09T17:43:34.365Z,1.90
2018-10-09T17:46:04.444Z,1.80
2018-10-09T17:48:33.765Z,2.10
2018-10-09T17:51:04.439Z,2.00
2018-10-09T17:53:35.726Z,1.80
2018-10-09T17:56:05.854Z,1.63
2018-10-09T17:58:36.358Z,1.90
2018-10-09T18:01:06.555Z,1.97
2018-10-09T18:03:36.178Z,1.97
2018-10-09T18:06:05.931Z,2.00
2018-10-09T18:08:36.246Z,1.80
2018-10-09T18:11:06.931Z,1.80
2018-10-09T18:13:38.025Z,2.00
2018-10-09T18:16:08.389Z,1.80
2018-10-09T18:18:39.091Z,2.30
2018-10-09T18:21:09.517Z,1.80
2018-10-09T18:23:39.851Z,2.27
2018-10-09T18:26:09.467Z,2.10
2018-10-09T18:28:41.298Z,2.40
2018-10-09T18:31:11.356Z,1.80
2018-10-09T18:33:41.357Z,1.90
2018-10-09T18:36:10.965Z,1.80
2018-10-09T18:38:41.709Z,1.90
2018-10-09T18:41:11.854Z,1.70
2018-10-09T18:43:41.909Z,1.77
2018-10-09T18:46:12.076Z,1.77
2018-10-09T18:48:41.688Z,1.97
2018-10-09T18:51:11.722Z,2.20
2018-10-09T18:53:42.771Z,2.07
2018-10-09T18:56:13.283Z,1.90
2018-10-09T18:58:43.199Z,1.90
2018-10-09T19:01:13.775Z,1.80
2018-10-09T19:03:44.028Z,2.10
2018-10-09T19:06:14.567Z,1.80
2018-10-09T19:08:44.245Z,1.90
2018-10-09T19:11:15.968Z,2.20
2018-10-09T19:13:46.773Z,2.30
2018-10-09T19:16:17.771Z,2.20
2018-10-09T19:18:48.553Z,2.13
2018-10-09T19:21:19.090Z,2.10
2018-10-09T19:23:49.724Z,1.90
2018-10-09T19:26:20.259Z,2.20
2018-10-09T19:28:49.537Z,1.80
2018-10-09T19:31:21.479Z,2.10
2018-10-09T19:33:51.106Z,1.90
2018-10-09T19:36:20.742Z,1.80
2018-10-09T19:38:50.749Z,2.10
2018-10-09T19:41:21.680Z,1.87
2018-10-09T19:43:52.469Z,2.03
2018-10-09T19:46:23.414Z,1.70
2018-10-09T19:48:53.397Z,2.00
2018-10-09T19:51:23.560Z,1.70
2018-10-09T19:53:53.414Z,1.77
2018-10-09T19:56:23.731Z,1.80
2018-10-09T19:58:55.601Z,1.80
2018-10-09T20:01:24.836Z,1.60
2018-10-09T20:03:54.437Z,1.67
2018-10-09T20:06:25.633Z,2.20
2018-10-09T20:08:56.732Z,1.77
2018-10-09T20:11:27.152Z,1.50
2018-10-09T20:13:59.078Z,1.80
2018-10-09T20:16:29.614Z,2.07
2018-10-09T20:19:00.936Z,2.37
2018-10-09T20:21:31.582Z,1.73
2018-10-09T20:24:02.461Z,1.70
2018-10-09T20:26:34.402Z,1.77
2018-10-09T20:29:05.790Z,1.47
2018-10-09T20:31:35.473Z,2.03
2018-10-09T20:34:05.677Z,1.73
2018-10-09T20:36:35.192Z,1.60
2018-10-09T20:39:06.011Z,1.30
2018-10-09T20:41:36.955Z,1.40
2018-10-09T20:44:08.165Z,1.50
2018-10-09T20:46:38.025Z,1.30
2018-10-09T20:49:07.705Z,1.60
2018-10-09T20:51:38.467Z,1.50
2018-10-09T20:54:09.933Z,1.47
2018-10-09T20:56:39.919Z,1.60
2018-10-09T20:59:10.809Z,1.57
2018-10-09T21:01:43.100Z,1.57
2018-10-09T21:04:14.261Z,1.60
2018-10-09T21:06:44.374Z,1.60
2018-10-09T21:09:13.599Z,1.70
2018-10-09T21:11:44.003Z,1.43
2018-10-09T21:14:14.823Z,1.53
2018-10-09T21:16:44.570Z,1.50
2018-10-09T21:19:13.652Z,1.30
2018-10-09T21:21:45.870Z,1.77
2018-10-09T21:24:16.351Z,1.43
2018-10-09T21:26:47.236Z,1.77
2018-10-09T21:29:18.633Z,1.47
2018-10-09T21:31:49.264Z,1.33
2018-10-09T21:34:20.436Z,1.30
2018-10-09T21:36:50.530Z,1.77
2018-10-09T21:39:21.782Z,2.00
2018-10-09T21:41:51.538Z,1.40
2018-10-09T21:44:22.022Z,1.37
2018-10-09T21:46:53.238Z,1.60
2018-10-09T21:49:23.984Z,1.67
2018-10-09T21:51:54.898Z,1.73
2018-10-09T21:54:25.495Z,1.60
2018-10-09T21:56:56.198Z,1.87
2018-10-09T21:59:26.290Z,1.60
2018-10-09T22:01:55.624Z,1.77
2018-10-09T22:04:26.362Z,1.50
2018-10-09T22:06:56.256Z,1.43
2018-10-09T22:09:26.578Z,1.33
2018-10-09T22:11:57.469Z,1.63
2018-10-09T22:14:28.077Z,1.60
2018-10-09T22:16:59.206Z,1.80
2018-10-09T22:19:29.895Z,2.20
2018-10-09T22:22:01.208Z,1.73
2018-10-09T22:24:30.956Z,1.70
2018-10-09T22:27:01.699Z,1.63
2018-10-09T22:29:33.001Z,1.50
2018-10-09T22:32:04.122Z,1.47
2018-10-09T22:34:34.472Z,1.57
2018-10-09T22:37:05.802Z,1.47
2018-10-09T22:39:36.770Z,1.93
2018-10-09T22:42:05.530Z,1.63
2018-10-09T22:44:36.362Z,1.73
2018-10-09T22:47:06.846Z,1.60
2018-10-09T22:49:36.668Z,1.67
2018-10-09T22:52:06.879Z,1.50
2018-10-09T22:54:37.342Z,1.70
2018-10-09T22:57:10.040Z,1.67
2018-10-09T22:59:40.868Z,1.40
2018-10-09T23:02:11.490Z,1.53
2018-10-09T23:04:41.466Z,1.60
2018-10-09T23:07:12.068Z,2.07
2018-10-09T23:09:42.881Z,1.60
2018-10-09T23:12:15.156Z,1.90
2018-10-09T23:14:44.264Z,1.70
2018-10-09T23:17:15.537Z,1.50
2018-10-09T23:19:46.881Z,1.93
2018-10-09T23:22:15.829Z,1.57
2018-10-09T23:24:44.841Z,1.90
2018-10-09T23:27:16.449Z,1.67
2018-10-09T23:29:47.084Z,1.73
2018-10-09T23:32:16.621Z,1.87
2018-10-09T23:34:47.000Z,1.70
2018-10-09T23:37:17.468Z,1.80
2018-10-09T23:39:47.909Z,1.63
2018-10-09T23:42:18.153Z,2.07
2018-10-09T23:44:48.997Z,1.73
2018-10-09T23:47:19.461Z,1.90
2018-10-09T23:49:49.129Z,1.90
2018-10-09T23:52:20.565Z,1.80
2018-10-09T23:54:50.488Z,2.30
2018-10-09T23:57:21.127Z,1.90
2018-10-09T23:59:52.309Z,1.80
